sensor_id;sensor_type;location;lat;lon;timestamp;P1;durP1;ratioP1;P2;durP2;ratioP2
9117;SDS011;4594;50.994;7.126;2023-12-14T00:01:14;8.07;;;6.13;;
9117;SDS011;4594;50.994;7.126;2023-12-14T00:03:40;7.07;;;5.23;;
9117;SDS011;4594;50.994;7.126;2023-12-14T00:06:09;10.97;;;5.63;;
9117;SDS011;4594;50.994;7.126;2023-12-14T00:08:35;9.03;;;6.23;;
9117;SDS011;4594;50.994;7.126;2023-12-14T00:11:08;7.90;;;5.57;;
9117;SDS011;4594;50.994;7.126;2023-12-14T00:13:35;6.20;;;5.57;;
9117;SDS011;4594;50.994;7.126;2023-12-14T00:16:02;12.90;;;6.50;;
9117;SDS011;4594;50.994;7.126;2023-12-14T00:18:28;8.67;;;5.50;;
9117;SDS011;4594;50.994;7.126;2023-12-14T00:20:54;10.60;;;5.80;;
9117;SDS011;4594;50.994;7.126;2023-12-14T00:23:21;7.30;;;5.60;;
9117;SDS011;4594;50.994;7.126;2023-12-14T00:25:48;6.10;;;5.47;;
9117;SDS011;4594;50.994;7.126;2023-12-14T00:28:14;7.77;;;5.17;;
9117;SDS011;4594;50.994;7.126;2023-12-14T00:30:39;7.57;;;5.80;;
9117;SDS011;4594;50.994;7.126;2023-12-14T00:33:05;8.00;;;5.60;;
9117;SDS011;4594;50.994;7.126;2023-12-14T00:35:31;8.50;;;5.70;;
9117;SDS011;4594;50.994;7.126;2023-12-14T00:37:57;6.30;;;5.70;;
9117;SDS011;4594;50.994;7.126;2023-12-14T00:40:22;9.67;;;6.20;;
9117;SDS011;4594;50.994;7.126;2023-12-14T00:42:48;8.63;;;6.83;;
9117;SDS011;4594;50.994;7.126;2023-12-14T00:45:14;7.73;;;6.07;;
9117;SDS011;4594;50.994;7.126;2023-12-14T00:47:39;6.80;;;6.10;;
9117;SDS011;4594;50.994;7.126;2023-12-14T00:50:05;9.20;;;6.43;;
9117;SDS011;4594;50.994;7.126;2023-12-14T00:52:31;7.37;;;6.07;;
9117;SDS011;4594;50.994;7.126;2023-12-14T00:54:57;10.60;;;6.97;;
9117;SDS011;4594;50.994;7.126;2023-12-14T00:57:23;7.97;;;6.47;;
9117;SDS011;4594;50.994;7.126;2023-12-14T00:59:49;8.73;;;6.97;;
9117;SDS011;4594;50.994;7.126;2023-12-14T01:02:14;10.57;;;7.13;;
9117;SDS011;4594;50.994;7.126;2023-12-14T01:04:40;11.23;;;7.03;;
9117;SDS011;4594;50.994;7.126;2023-12-14T01:07:07;11.97;;;8.73;;
9117;SDS011;4594;50.994;7.126;2023-12-14T01:09:32;11.33;;;8.40;;
9117;SDS011;4594;50.994;7.126;2023-12-14T01:11:58;11.47;;;8.73;;
9117;SDS011;4594;50.994;7.126;2023-12-14T01:14:24;12.77;;;8.37;;
9117;SDS011;4594;50.994;7.126;2023-12-14T01:16:49;14.43;;;8.83;;
9117;SDS011;4594;50.994;7.126;2023-12-14T01:19:15;13.13;;;8.70;;
9117;SDS011;4594;50.994;7.126;2023-12-14T01:21:41;12.63;;;9.50;;
9117;SDS011;4594;50.994;7.126;2023-12-14T01:24:06;11.30;;;8.60;;
9117;SDS011;4594;50.994;7.126;2023-12-14T01:26:32;14.53;;;9.50;;
9117;SDS011;4594;50.994;7.126;2023-12-14T01:28:58;13.67;;;9.50;;
9117;SDS011;4594;50.994;7.126;2023-12-14T01:31:24;14.87;;;9.83;;
9117;SDS011;4594;50.994;7.126;2023-12-14T01:33:51;12.97;;;9.17;;
9117;SDS011;4594;50.994;7.126;2023-12-14T01:36:23;13.43;;;9.43;;
9117;SDS011;4594;50.994;7.126;2023-12-14T01:38:50;12.77;;;9.40;;
9117;SDS011;4594;50.994;7.126;2023-12-14T01:41:17;14.23;;;9.47;;
9117;SDS011;4594;50.994;7.126;2023-12-14T01:43:43;13.20;;;9.63;;
9117;SDS011;4594;50.994;7.126;2023-12-14T01:46:10;17.40;;;9.93;;
9117;SDS011;4594;50.994;7.126;2023-12-14T01:48:36;12.77;;;9.10;;
9117;SDS011;4594;50.994;7.126;2023-12-14T01:51:02;12.33;;;9.47;;
9117;SDS011;4594;50.994;7.126;2023-12-14T01:53:28;16.13;;;9.17;;
9117;SDS011;4594;50.994;7.126;2023-12-14T01:55:54;14.00;;;10.27;;
9117;SDS011;4594;50.994;7.126;2023-12-14T01:58:20;14.63;;;9.97;;
9117;SDS011;4594;50.994;7.126;2023-12-14T02:00:49;13.03;;;10.03;;
9117;SDS011;4594;50.994;7.126;2023-12-14T02:04:14;11.90;;;9.03;;
9117;SDS011;4594;50.994;7.126;2023-12-14T02:06:40;15.23;;;10.00;;
9117;SDS011;4594;50.994;7.126;2023-12-14T02:09:06;15.40;;;10.13;;
9117;SDS011;4594;50.994;7.126;2023-12-14T02:11:31;12.73;;;10.03;;
9117;SDS011;4594;50.994;7.126;2023-12-14T02:13:57;12.77;;;9.40;;
9117;SDS011;4594;50.994;7.126;2023-12-14T02:16:23;16.63;;;10.63;;
9117;SDS011;4594;50.994;7.126;2023-12-14T02:18:48;16.50;;;10.33;;
9117;SDS011;4594;50.994;7.126;2023-12-14T02:21:14;15.60;;;11.10;;
9117;SDS011;4594;50.994;7.126;2023-12-14T02:23:43;15.23;;;10.67;;
9117;SDS011;4594;50.994;7.126;2023-12-14T02:26:10;16.03;;;10.93;;
9117;SDS011;4594;50.994;7.126;2023-12-14T02:28:36;19.73;;;10.93;;
9117;SDS011;4594;50.994;7.126;2023-12-14T02:31:02;20.37;;;12.00;;
9117;SDS011;4594;50.994;7.126;2023-12-14T02:33:28;22.33;;;12.73;;
9117;SDS011;4594;50.994;7.126;2023-12-14T02:35:54;19.63;;;11.97;;
9117;SDS011;4594;50.994;7.126;2023-12-14T02:38:19;19.10;;;11.33;;
9117;SDS011;4594;50.994;7.126;2023-12-14T02:40:46;23.90;;;12.73;;
9117;SDS011;4594;50.994;7.126;2023-12-14T02:43:11;18.53;;;11.50;;
9117;SDS011;4594;50.994;7.126;2023-12-14T02:45:37;23.80;;;12.63;;
9117;SDS011;4594;50.994;7.126;2023-12-14T02:48:03;20.40;;;11.90;;
9117;SDS011;4594;50.994;7.126;2023-12-14T02:50:29;18.83;;;11.33;;
9117;SDS011;4594;50.994;7.126;2023-12-14T02:52:55;19.07;;;10.93;;
9117;SDS011;4594;50.994;7.126;2023-12-14T02:55:21;17.83;;;10.93;;
9117;SDS011;4594;50.994;7.126;2023-12-14T02:57:46;18.50;;;10.10;;
9117;SDS011;4594;50.994;7.126;2023-12-14T03:00:12;18.33;;;10.87;;
9117;SDS011;4594;50.994;7.126;2023-12-14T03:02:38;20.33;;;10.87;;
9117;SDS011;4594;50.994;7.126;2023-12-14T03:05:04;17.20;;;10.03;;
9117;SDS011;4594;50.994;7.126;2023-12-14T03:07:30;15.90;;;10.57;;
9117;SDS011;4594;50.994;7.126;2023-12-14T03:09:56;19.17;;;10.80;;
9117;SDS011;4594;50.994;7.126;2023-12-14T03:12:22;18.67;;;9.80;;
9117;SDS011;4594;50.994;7.126;2023-12-14T03:14:47;13.93;;;9.40;;
9117;SDS011;4594;50.994;7.126;2023-12-14T03:17:13;13.33;;;8.67;;
9117;SDS011;4594;50.994;7.126;2023-12-14T03:19:39;14.13;;;9.03;;
9117;SDS011;4594;50.994;7.126;2023-12-14T03:22:06;13.43;;;8.87;;
9117;SDS011;4594;50.994;7.126;2023-12-14T03:24:32;13.60;;;8.70;;
9117;SDS011;4594;50.994;7.126;2023-12-14T03:26:58;13.80;;;8.80;;
9117;SDS011;4594;50.994;7.126;2023-12-14T03:29:23;14.80;;;9.60;;
9117;SDS011;4594;50.994;7.126;2023-12-14T03:31:49;14.77;;;10.00;;
9117;SDS011;4594;50.994;7.126;2023-12-14T03:34:15;15.83;;;10.13;;
9117;SDS011;4594;50.994;7.126;2023-12-14T03:36:42;15.00;;;8.97;;
9117;SDS011;4594;50.994;7.126;2023-12-14T03:39:08;14.80;;;9.37;;
9117;SDS011;4594;50.994;7.126;2023-12-14T03:41:33;15.53;;;9.67;;
9117;SDS011;4594;50.994;7.126;2023-12-14T03:43:59;16.80;;;10.50;;
9117;SDS011;4594;50.994;7.126;2023-12-14T03:46:25;15.70;;;10.33;;
9117;SDS011;4594;50.994;7.126;2023-12-14T03:48:50;14.33;;;10.40;;
9117;SDS011;4594;50.994;7.126;2023-12-14T03:51:19;13.30;;;10.10;;
9117;SDS011;4594;50.994;7.126;2023-12-14T03:53:45;17.17;;;10.40;;
9117;SDS011;4594;50.994;7.126;2023-12-14T03:56:11;15.37;;;10.60;;
9117;SDS011;4594;50.994;7.126;2023-12-14T03:58:36;14.07;;;9.80;;
9117;SDS011;4594;50.994;7.126;2023-12-14T04:01:02;14.17;;;9.90;;
9117;SDS011;4594;50.994;7.126;2023-12-14T04:03:28;12.17;;;9.33;;
9117;SDS011;4594;50.994;7.126;2023-12-14T04:05:54;15.27;;;10.07;;
9117;SDS011;4594;50.994;7.126;2023-12-14T04:08:19;11.10;;;8.83;;
9117;SDS011;4594;50.994;7.126;2023-12-14T04:10:45;11.63;;;8.07;;
9117;SDS011;4594;50.994;7.126;2023-12-14T04:13:11;9.73;;;8.07;;
9117;SDS011;4594;50.994;7.126;2023-12-14T04:15:37;10.93;;;7.63;;
9117;SDS011;4594;50.994;7.126;2023-12-14T04:18:03;9.67;;;7.50;;
9117;SDS011;4594;50.994;7.126;2023-12-14T04:20:31;11.10;;;8.67;;
9117;SDS011;4594;50.994;7.126;2023-12-14T04:22:57;7.03;;;6.33;;
9117;SDS011;4594;50.994;7.126;2023-12-14T04:25:22;8.60;;;6.83;;
9117;SDS011;4594;50.994;7.126;2023-12-14T04:27:48;6.93;;;6.23;;
9117;SDS011;4594;50.994;7.126;2023-12-14T04:30:14;7.90;;;6.17;;
9117;SDS011;4594;50.994;7.126;2023-12-14T04:32:39;5.57;;;5.07;;
9117;SDS011;4594;50.994;7.126;2023-12-14T04:35:05;5.40;;;4.90;;
9117;SDS011;4594;50.994;7.126;2023-12-14T04:37:32;4.87;;;4.37;;
9117;SDS011;4594;50.994;7.126;2023-12-14T04:39:59;5.60;;;5.10;;
9117;SDS011;4594;50.994;7.126;2023-12-14T04:42:25;4.60;;;4.20;;
9117;SDS011;4594;50.994;7.126;2023-12-14T04:44:51;6.00;;;5.40;;
9117;SDS011;4594;50.994;7.126;2023-12-14T04:47:16;5.07;;;4.67;;
9117;SDS011;4594;50.994;7.126;2023-12-14T04:49:42;5.40;;;4.90;;
9117;SDS011;4594;50.994;7.126;2023-12-14T04:52:08;5.27;;;4.77;;
9117;SDS011;4594;50.994;7.126;2023-12-14T04:54:34;5.03;;;4.53;;
9117;SDS011;4594;50.994;7.126;2023-12-14T04:57:03;5.80;;;5.17;;
9117;SDS011;4594;50.994;7.126;2023-12-14T04:59:29;7.90;;;5.10;;
9117;SDS011;4594;50.994;7.126;2023-12-14T05:01:54;5.17;;;4.77;;
9117;SDS011;4594;50.994;7.126;2023-12-14T05:04:20;6.80;;;5.10;;
9117;SDS011;4594;50.994;7.126;2023-12-14T05:06:46;6.33;;;5.73;;
9117;SDS011;4594;50.994;7.126;2023-12-14T05:09:11;5.80;;;5.30;;
9117;SDS011;4594;50.994;7.126;2023-12-14T05:11:39;6.73;;;6.03;;
9117;SDS011;4594;50.994;7.126;2023-12-14T05:14:05;7.03;;;6.33;;
9117;SDS011;4594;50.994;7.126;2023-12-14T05:16:31;7.23;;;6.57;;
9117;SDS011;4594;50.994;7.126;2023-12-14T05:18:57;8.47;;;7.60;;
9117;SDS011;4594;50.994;7.126;2023-12-14T05:21:23;11.30;;;9.03;;
9117;SDS011;4594;50.994;7.126;2023-12-14T05:23:48;11.63;;;8.77;;
9117;SDS011;4594;50.994;7.126;2023-12-14T05:26:14;13.03;;;9.50;;
9117;SDS011;4594;50.994;7.126;2023-12-14T05:28:40;15.30;;;10.23;;
9117;SDS011;4594;50.994;7.126;2023-12-14T05:31:06;14.80;;;10.13;;
9117;SDS011;4594;50.994;7.126;2023-12-14T05:33:31;14.10;;;10.50;;
9117;SDS011;4594;50.994;7.126;2023-12-14T05:36:01;16.70;;;11.13;;
9117;SDS011;4594;50.994;7.126;2023-12-14T05:38:30;15.93;;;10.20;;
9117;SDS011;4594;50.994;7.126;2023-12-14T05:40:56;13.47;;;9.67;;
9117;SDS011;4594;50.994;7.126;2023-12-14T05:43:22;15.10;;;10.23;;
9117;SDS011;4594;50.994;7.126;2023-12-14T05:45:47;13.33;;;10.33;;
9117;SDS011;4594;50.994;7.126;2023-12-14T05:48:13;18.23;;;10.13;;
9117;SDS011;4594;50.994;7.126;2023-12-14T05:50:39;12.63;;;9.00;;
9117;SDS011;4594;50.994;7.126;2023-12-14T05:53:05;11.63;;;8.67;;
9117;SDS011;4594;50.994;7.126;2023-12-14T05:55:31;12.83;;;9.50;;
9117;SDS011;4594;50.994;7.126;2023-12-14T05:57:56;13.43;;;9.40;;
9117;SDS011;4594;50.994;7.126;2023-12-14T06:00:22;13.37;;;9.70;;
9117;SDS011;4594;50.994;7.126;2023-12-14T06:02:47;14.00;;;9.87;;
9117;SDS011;4594;50.994;7.126;2023-12-14T06:05:13;14.23;;;8.93;;
9117;SDS011;4594;50.994;7.126;2023-12-14T06:07:39;15.63;;;10.60;;
9117;SDS011;4594;50.994;7.126;2023-12-14T06:10:05;17.30;;;10.63;;
9117;SDS011;4594;50.994;7.126;2023-12-14T06:12:31;16.47;;;10.07;;
9117;SDS011;4594;50.994;7.126;2023-12-14T06:14:57;14.67;;;10.50;;
9117;SDS011;4594;50.994;7.126;2023-12-14T06:17:23;16.17;;;9.97;;
9117;SDS011;4594;50.994;7.126;2023-12-14T06:19:48;14.07;;;9.47;;
9117;SDS011;4594;50.994;7.126;2023-12-14T06:22:14;16.20;;;10.23;;
9117;SDS011;4594;50.994;7.126;2023-12-14T06:24:40;16.40;;;9.93;;
9117;SDS011;4594;50.994;7.126;2023-12-14T06:27:05;17.03;;;11.10;;
9117;SDS011;4594;50.994;7.126;2023-12-14T06:29:32;16.40;;;10.73;;
9117;SDS011;4594;50.994;7.126;2023-12-14T06:31:57;15.40;;;10.57;;
9117;SDS011;4594;50.994;7.126;2023-12-14T06:34:23;14.07;;;9.87;;
9117;SDS011;4594;50.994;7.126;2023-12-14T06:36:48;14.50;;;10.60;;
9117;SDS011;4594;50.994;7.126;2023-12-14T06:39:14;15.57;;;10.67;;
9117;SDS011;4594;50.994;7.126;2023-12-14T06:41:41;16.33;;;10.60;;
9117;SDS011;4594;50.994;7.126;2023-12-14T06:44:07;15.57;;;10.47;;
9117;SDS011;4594;50.994;7.126;2023-12-14T06:46:34;17.07;;;10.77;;
9117;SDS011;4594;50.994;7.126;2023-12-14T06:49:01;16.27;;;10.13;;
9117;SDS011;4594;50.994;7.126;2023-12-14T06:51:26;19.57;;;11.80;;
9117;SDS011;4594;50.994;7.126;2023-12-14T06:53:53;15.90;;;9.83;;
9117;SDS011;4594;50.994;7.126;2023-12-14T06:56:19;17.17;;;11.40;;
9117;SDS011;4594;50.994;7.126;2023-12-14T06:58:44;18.10;;;10.23;;
9117;SDS011;4594;50.994;7.126;2023-12-14T07:01:14;16.70;;;10.60;;
9117;SDS011;4594;50.994;7.126;2023-12-14T07:03:41;17.17;;;11.07;;
9117;SDS011;4594;50.994;7.126;2023-12-14T07:06:11;18.43;;;11.80;;
9117;SDS011;4594;50.994;7.126;2023-12-14T07:08:41;19.67;;;12.63;;
9117;SDS011;4594;50.994;7.126;2023-12-14T07:11:07;21.10;;;13.20;;
9117;SDS011;4594;50.994;7.126;2023-12-14T07:13:34;19.57;;;12.43;;
9117;SDS011;4594;50.994;7.126;2023-12-14T07:16:02;22.73;;;13.30;;
9117;SDS011;4594;50.994;7.126;2023-12-14T07:18:35;20.40;;;13.60;;
9117;SDS011;4594;50.994;7.126;2023-12-14T07:21:06;20.10;;;12.17;;
9117;SDS011;4594;50.994;7.126;2023-12-14T07:23:33;21.73;;;12.57;;
9117;SDS011;4594;50.994;7.126;2023-12-14T07:26:00;22.07;;;12.07;;
9117;SDS011;4594;50.994;7.126;2023-12-14T07:28:26;16.70;;;11.77;;
9117;SDS011;4594;50.994;7.126;2023-12-14T07:30:52;17.23;;;11.87;;
9117;SDS011;4594;50.994;7.126;2023-12-14T07:33:18;18.60;;;12.07;;
9117;SDS011;4594;50.994;7.126;2023-12-14T07:35:44;17.57;;;10.97;;
9117;SDS011;4594;50.994;7.126;2023-12-14T07:38:10;20.23;;;11.13;;
9117;SDS011;4594;50.994;7.126;2023-12-14T07:40:36;17.80;;;11.30;;
9117;SDS011;4594;50.994;7.126;2023-12-14T07:43:03;16.73;;;11.07;;
9117;SDS011;4594;50.994;7.126;2023-12-14T07:45:29;16.47;;;10.87;;
9117;SDS011;4594;50.994;7.126;2023-12-14T07:47:55;14.80;;;10.23;;
9117;SDS011;4594;50.994;7.126;2023-12-14T07:50:21;18.50;;;11.20;;
9117;SDS011;4594;50.994;7.126;2023-12-14T07:52:47;16.97;;;11.30;;
9117;SDS011;4594;50.994;7.126;2023-12-14T07:55:12;18.67;;;11.43;;
9117;SDS011;4594;50.994;7.126;2023-12-14T07:57:42;20.20;;;11.87;;
9117;SDS011;4594;50.994;7.126;2023-12-14T08:00:08;18.27;;;11.20;;
9117;SDS011;4594;50.994;7.126;2023-12-14T08:02:35;17.60;;;11.20;;
9117;SDS011;4594;50.994;7.126;2023-12-14T08:05:01;17.77;;;11.50;;
9117;SDS011;4594;50.994;7.126;2023-12-14T08:07:27;20.07;;;12.00;;
9117;SDS011;4594;50.994;7.126;2023-12-14T08:09:54;20.30;;;11.70;;
9117;SDS011;4594;50.994;7.126;2023-12-14T08:12:21;17.77;;;12.03;;
9117;SDS011;4594;50.994;7.126;2023-12-14T08:14:49;19.60;;;11.97;;
9117;SDS011;4594;50.994;7.126;2023-12-14T08:17:15;18.57;;;12.03;;
9117;SDS011;4594;50.994;7.126;2023-12-14T08:19:41;18.10;;;11.93;;
9117;SDS011;4594;50.994;7.126;2023-12-14T08:22:07;16.93;;;11.20;;
9117;SDS011;4594;50.994;7.126;2023-12-14T08:24:36;17.03;;;11.10;;
9117;SDS011;4594;50.994;7.126;2023-12-14T08:27:03;16.53;;;11.43;;
9117;SDS011;4594;50.994;7.126;2023-12-14T08:29:28;15.87;;;10.53;;
9117;SDS011;4594;50.994;7.126;2023-12-14T08:31:54;17.20;;;10.50;;
9117;SDS011;4594;50.994;7.126;2023-12-14T08:34:22;17.27;;;11.20;;
9117;SDS011;4594;50.994;7.126;2023-12-14T08:36:51;17.33;;;10.70;;
9117;SDS011;4594;50.994;7.126;2023-12-14T08:39:17;16.90;;;10.77;;
9117;SDS011;4594;50.994;7.126;2023-12-14T08:41:43;18.03;;;11.00;;
9117;SDS011;4594;50.994;7.126;2023-12-14T08:44:12;13.00;;;9.10;;
9117;SDS011;4594;50.994;7.126;2023-12-14T08:46:42;16.20;;;10.83;;
9117;SDS011;4594;50.994;7.126;2023-12-14T08:49:11;18.17;;;11.40;;
9117;SDS011;4594;50.994;7.126;2023-12-14T08:51:38;24.63;;;12.40;;
9117;SDS011;4594;50.994;7.126;2023-12-14T08:54:05;18.27;;;11.60;;
9117;SDS011;4594;50.994;7.126;2023-12-14T08:56:31;19.20;;;11.10;;
9117;SDS011;4594;50.994;7.126;2023-12-14T08:58:57;18.37;;;11.50;;
9117;SDS011;4594;50.994;7.126;2023-12-14T09:01:24;18.77;;;11.30;;
9117;SDS011;4594;50.994;7.126;2023-12-14T09:03:50;16.50;;;10.73;;
9117;SDS011;4594;50.994;7.126;2023-12-14T09:06:16;17.47;;;10.47;;
9117;SDS011;4594;50.994;7.126;2023-12-14T09:08:43;18.93;;;10.27;;
9117;SDS011;4594;50.994;7.126;2023-12-14T09:11:10;17.30;;;9.87;;
9117;SDS011;4594;50.994;7.126;2023-12-14T09:13:36;16.77;;;10.23;;
9117;SDS011;4594;50.994;7.126;2023-12-14T09:16:01;18.60;;;11.03;;
9117;SDS011;4594;50.994;7.126;2023-12-14T09:18:27;17.43;;;10.30;;
9117;SDS011;4594;50.994;7.126;2023-12-14T09:20:53;21.63;;;12.63;;
9117;SDS011;4594;50.994;7.126;2023-12-14T09:23:18;21.77;;;12.07;;
9117;SDS011;4594;50.994;7.126;2023-12-14T09:25:47;26.70;;;12.03;;
9117;SDS011;4594;50.994;7.126;2023-12-14T09:28:13;26.77;;;13.30;;
9117;SDS011;4594;50.994;7.126;2023-12-14T09:30:38;26.87;;;13.83;;
9117;SDS011;4594;50.994;7.126;2023-12-14T09:33:04;27.60;;;14.43;;
9117;SDS011;4594;50.994;7.126;2023-12-14T09:35:33;24.40;;;13.13;;
9117;SDS011;4594;50.994;7.126;2023-12-14T09:38:01;26.13;;;13.57;;
9117;SDS011;4594;50.994;7.126;2023-12-14T09:40:28;29.33;;;14.27;;
9117;SDS011;4594;50.994;7.126;2023-12-14T09:42:54;25.80;;;13.87;;
9117;SDS011;4594;50.994;7.126;2023-12-14T09:45:23;29.20;;;14.23;;
9117;SDS011;4594;50.994;7.126;2023-12-14T09:47:54;25.03;;;14.03;;
9117;SDS011;4594;50.994;7.126;2023-12-14T09:50:23;24.23;;;13.93;;
9117;SDS011;4594;50.994;7.126;2023-12-14T09:52:49;27.53;;;14.27;;
9117;SDS011;4594;50.994;7.126;2023-12-14T09:55:15;25.63;;;13.80;;
9117;SDS011;4594;50.994;7.126;2023-12-14T09:57:41;23.17;;;13.00;;
9117;SDS011;4594;50.994;7.126;2023-12-14T10:00:07;27.07;;;14.50;;
9117;SDS011;4594;50.994;7.126;2023-12-14T10:02:39;21.60;;;12.30;;
9117;SDS011;4594;50.994;7.126;2023-12-14T10:05:09;23.10;;;12.83;;
9117;SDS011;4594;50.994;7.126;2023-12-14T10:07:42;23.17;;;12.73;;
9117;SDS011;4594;50.994;7.126;2023-12-14T10:10:09;28.47;;;14.83;;
9117;SDS011;4594;50.994;7.126;2023-12-14T10:12:50;27.57;;;15.20;;
9117;SDS011;4594;50.994;7.126;2023-12-14T10:15:19;30.67;;;16.30;;
9117;SDS011;4594;50.994;7.126;2023-12-14T10:17:50;31.10;;;15.20;;
9117;SDS011;4594;50.994;7.126;2023-12-14T10:20:22;30.20;;;15.93;;
9117;SDS011;4594;50.994;7.126;2023-12-14T10:22:48;31.27;;;16.50;;
9117;SDS011;4594;50.994;7.126;2023-12-14T10:25:15;31.73;;;16.33;;
9117;SDS011;4594;50.994;7.126;2023-12-14T10:27:45;32.67;;;16.80;;
9117;SDS011;4594;50.994;7.126;2023-12-14T10:30:13;32.13;;;16.93;;
9117;SDS011;4594;50.994;7.126;2023-12-14T10:32:40;29.40;;;15.80;;
9117;SDS011;4594;50.994;7.126;2023-12-14T10:35:06;31.47;;;15.63;;
9117;SDS011;4594;50.994;7.126;2023-12-14T10:37:32;27.57;;;15.67;;
9117;SDS011;4594;50.994;7.126;2023-12-14T10:40:04;30.13;;;15.80;;
9117;SDS011;4594;50.994;7.126;2023-12-14T10:42:32;27.63;;;15.77;;
9117;SDS011;4594;50.994;7.126;2023-12-14T10:45:01;27.77;;;15.53;;
9117;SDS011;4594;50.994;7.126;2023-12-14T10:47:29;28.90;;;16.37;;
9117;SDS011;4594;50.994;7.126;2023-12-14T10:49:55;27.97;;;16.37;;
9117;SDS011;4594;50.994;7.126;2023-12-14T10:52:25;26.33;;;14.43;;
9117;SDS011;4594;50.994;7.126;2023-12-14T10:54:53;26.57;;;15.10;;
9117;SDS011;4594;50.994;7.126;2023-12-14T10:57:33;27.53;;;15.27;;
9117;SDS011;4594;50.994;7.126;2023-12-14T10:59:59;29.27;;;16.00;;
9117;SDS011;4594;50.994;7.126;2023-12-14T11:02:27;28.00;;;16.43;;
9117;SDS011;4594;50.994;7.126;2023-12-14T11:04:57;28.27;;;16.00;;
9117;SDS011;4594;50.994;7.126;2023-12-14T11:10:13;31.43;;;17.50;;
9117;SDS011;4594;50.994;7.126;2023-12-14T11:12:56;35.67;;;17.90;;
9117;SDS011;4594;50.994;7.126;2023-12-14T11:15:25;36.17;;;18.17;;
9117;SDS011;4594;50.994;7.126;2023-12-14T11:23:14;39.90;;;20.13;;
9117;SDS011;4594;50.994;7.126;2023-12-14T11:25:51;37.43;;;20.27;;
9117;SDS011;4594;50.994;7.126;2023-12-14T11:28:30;37.33;;;20.13;;
9117;SDS011;4594;50.994;7.126;2023-12-14T11:30:57;33.07;;;19.17;;
9117;SDS011;4594;50.994;7.126;2023-12-14T11:33:23;34.37;;;18.73;;
9117;SDS011;4594;50.994;7.126;2023-12-14T11:35:50;33.57;;;18.00;;
9117;SDS011;4594;50.994;7.126;2023-12-14T11:38:20;32.07;;;16.83;;
9117;SDS011;4594;50.994;7.126;2023-12-14T11:40:48;30.10;;;16.30;;
9117;SDS011;4594;50.994;7.126;2023-12-14T11:43:14;27.10;;;15.70;;
9117;SDS011;4594;50.994;7.126;2023-12-14T11:45:40;23.37;;;14.63;;
9117;SDS011;4594;50.994;7.126;2023-12-14T11:48:10;26.77;;;15.30;;
9117;SDS011;4594;50.994;7.126;2023-12-14T11:50:37;27.60;;;14.33;;
9117;SDS011;4594;50.994;7.126;2023-12-14T11:53:05;45.70;;;22.97;;
9117;SDS011;4594;50.994;7.126;2023-12-14T11:55:33;54.90;;;26.77;;
9117;SDS011;4594;50.994;7.126;2023-12-14T11:58:02;67.37;;;29.47;;
9117;SDS011;4594;50.994;7.126;2023-12-14T12:00:29;50.67;;;22.90;;
9117;SDS011;4594;50.994;7.126;2023-12-14T12:03:15;39.70;;;20.03;;
9117;SDS011;4594;50.994;7.126;2023-12-14T12:05:48;32.67;;;17.40;;
9117;SDS011;4594;50.994;7.126;2023-12-14T12:08:16;25.30;;;15.97;;
9117;SDS011;4594;50.994;7.126;2023-12-14T12:10:45;30.40;;;17.23;;
9117;SDS011;4594;50.994;7.126;2023-12-14T12:13:13;27.17;;;16.07;;
9117;SDS011;4594;50.994;7.126;2023-12-14T12:15:41;32.93;;;16.03;;
9117;SDS011;4594;50.994;7.126;2023-12-14T12:18:08;27.60;;;15.80;;
9117;SDS011;4594;50.994;7.126;2023-12-14T12:20:36;28.07;;;16.17;;
9117;SDS011;4594;50.994;7.126;2023-12-14T12:23:02;27.30;;;16.77;;
9117;SDS011;4594;50.994;7.126;2023-12-14T12:25:28;28.53;;;16.27;;
9117;SDS011;4594;50.994;7.126;2023-12-14T12:27:58;28.27;;;17.20;;
9117;SDS011;4594;50.994;7.126;2023-12-14T12:30:26;28.03;;;16.13;;
9117;SDS011;4594;50.994;7.126;2023-12-14T12:32:53;27.33;;;16.13;;
9117;SDS011;4594;50.994;7.126;2023-12-14T12:35:20;28.53;;;16.63;;
9117;SDS011;4594;50.994;7.126;2023-12-14T12:37:48;26.67;;;15.20;;
9117;SDS011;4594;50.994;7.126;2023-12-14T12:40:18;26.87;;;15.93;;
9117;SDS011;4594;50.994;7.126;2023-12-14T12:42:46;26.63;;;15.73;;
9117;SDS011;4594;50.994;7.126;2023-12-14T12:45:15;29.90;;;16.47;;
9117;SDS011;4594;50.994;7.126;2023-12-14T12:47:52;27.57;;;15.87;;
9117;SDS011;4594;50.994;7.126;2023-12-14T12:50:19;26.90;;;15.67;;
9117;SDS011;4594;50.994;7.126;2023-12-14T12:52:45;27.67;;;15.23;;
9117;SDS011;4594;50.994;7.126;2023-12-14T12:55:14;28.63;;;16.17;;
9117;SDS011;4594;50.994;7.126;2023-12-14T12:57:40;26.97;;;15.43;;
9117;SDS011;4594;50.994;7.126;2023-12-14T13:00:07;32.37;;;17.70;;
9117;SDS011;4594;50.994;7.126;2023-12-14T13:02:37;25.47;;;15.53;;
9117;SDS011;4594;50.994;7.126;2023-12-14T13:05:08;27.67;;;15.70;;
9117;SDS011;4594;50.994;7.126;2023-12-14T13:07:35;22.53;;;14.70;;
9117;SDS011;4594;50.994;7.126;2023-12-14T13:10:02;28.27;;;15.00;;
9117;SDS011;4594;50.994;7.126;2023-12-14T13:12:31;22.73;;;14.07;;
9117;SDS011;4594;50.994;7.126;2023-12-14T13:14:56;24.53;;;15.33;;
9117;SDS011;4594;50.994;7.126;2023-12-14T13:17:22;23.13;;;14.87;;
9117;SDS011;4594;50.994;7.126;2023-12-14T13:19:48;22.50;;;14.17;;
9117;SDS011;4594;50.994;7.126;2023-12-14T13:22:14;20.33;;;13.87;;
9117;SDS011;4594;50.994;7.126;2023-12-14T13:24:40;27.17;;;13.97;;
9117;SDS011;4594;50.994;7.126;2023-12-14T13:27:06;23.97;;;15.03;;
9117;SDS011;4594;50.994;7.126;2023-12-14T13:29:32;23.20;;;14.67;;
9117;SDS011;4594;50.994;7.126;2023-12-14T13:31:59;21.93;;;14.97;;
9117;SDS011;4594;50.994;7.126;2023-12-14T13:34:26;21.40;;;14.77;;
9117;SDS011;4594;50.994;7.126;2023-12-14T13:36:52;21.77;;;13.20;;
9117;SDS011;4594;50.994;7.126;2023-12-14T13:39:19;22.63;;;14.23;;
9117;SDS011;4594;50.994;7.126;2023-12-14T13:41:45;21.90;;;13.23;;
9117;SDS011;4594;50.994;7.126;2023-12-14T13:44:11;21.83;;;12.80;;
9117;SDS011;4594;50.994;7.126;2023-12-14T13:46:36;20.97;;;12.50;;
9117;SDS011;4594;50.994;7.126;2023-12-14T13:49:02;17.50;;;12.30;;
9117;SDS011;4594;50.994;7.126;2023-12-14T13:51:28;15.73;;;10.87;;
9117;SDS011;4594;50.994;7.126;2023-12-14T13:53:54;15.03;;;10.53;;
9117;SDS011;4594;50.994;7.126;2023-12-14T13:56:20;13.80;;;9.60;;
9117;SDS011;4594;50.994;7.126;2023-12-14T13:58:46;15.10;;;10.03;;
9117;SDS011;4594;50.994;7.126;2023-12-14T14:01:12;13.23;;;9.43;;
9117;SDS011;4594;50.994;7.126;2023-12-14T14:03:40;12.37;;;8.83;;
9117;SDS011;4594;50.994;7.126;2023-12-14T14:06:07;12.73;;;9.00;;
9117;SDS011;4594;50.994;7.126;2023-12-14T14:08:34;15.10;;;9.43;;
9117;SDS011;4594;50.994;7.126;2023-12-14T14:11:00;12.33;;;8.83;;
9117;SDS011;4594;50.994;7.126;2023-12-14T14:13:27;13.37;;;9.63;;
9117;SDS011;4594;50.994;7.126;2023-12-14T14:15:54;12.40;;;8.83;;
9117;SDS011;4594;50.994;7.126;2023-12-14T14:18:19;12.57;;;9.47;;
9117;SDS011;4594;50.994;7.126;2023-12-14T14:20:45;11.70;;;8.43;;
9117;SDS011;4594;50.994;7.126;2023-12-14T14:23:11;12.23;;;8.23;;
9117;SDS011;4594;50.994;7.126;2023-12-14T14:25:37;11.13;;;8.60;;
9117;SDS011;4594;50.994;7.126;2023-12-14T14:28:03;11.67;;;8.33;;
9117;SDS011;4594;50.994;7.126;2023-12-14T14:30:29;12.70;;;7.93;;
9117;SDS011;4594;50.994;7.126;2023-12-14T14:32:55;11.93;;;8.70;;
9117;SDS011;4594;50.994;7.126;2023-12-14T14:35:22;9.37;;;7.70;;
9117;SDS011;4594;50.994;7.126;2023-12-14T14:37:51;15.73;;;7.67;;
9117;SDS011;4594;50.994;7.126;2023-12-14T14:40:17;8.67;;;7.23;;
9117;SDS011;4594;50.994;7.126;2023-12-14T14:42:43;9.73;;;7.17;;
9117;SDS011;4594;50.994;7.126;2023-12-14T14:45:09;12.13;;;7.50;;
9117;SDS011;4594;50.994;7.126;2023-12-14T14:47:36;9.80;;;7.80;;
9117;SDS011;4594;50.994;7.126;2023-12-14T14:50:03;8.60;;;6.93;;
9117;SDS011;4594;50.994;7.126;2023-12-14T14:52:29;8.87;;;7.23;;
9117;SDS011;4594;50.994;7.126;2023-12-14T14:54:56;17.70;;;10.30;;
9117;SDS011;4594;50.994;7.126;2023-12-14T14:57:22;22.40;;;12.33;;
9117;SDS011;4594;50.994;7.126;2023-12-14T14:59:47;17.03;;;9.57;;
9117;SDS011;4594;50.994;7.126;2023-12-14T15:02:13;10.33;;;7.90;;